KDVO

Details ICAO KDVO
Name GNOSS FLD
Region United States
Timezone America/Los_Angeles (UTC-7.0)
Plans Departing 21
Arriving 9
Stats Elevation 2 ft / 1 m (AMSL)
Location 38.143602° -122.556123°
Runways 1
Magnetic Variation 13.563° E
Sunrise 2018-05-22 12:55:32 UTC / 2018-05-22 05:55:32 Local
Sunset 2018-05-23 03:21:09 UTC / 2018-05-22 20:21:09 Local
Advertisement - Login to hide

Runways

ID Width Length Bearing (true) Bearing (mag) Surface Threshold Offset Overrun Length
13 75 ft / 23 m 3,304 ft / 1,007 m 148.57° 135.01° Asphalt 0 ft / 0 m 98 ft / 30 m
31 75 ft / 23 m 3,304 ft / 1,007 m 328.57° 315.01° Asphalt 0 ft / 0 m 125 ft / 38 m

Map

Weather


0- 5 10 15 20 25 30 35+ Temperature / ° C

Clouds and Precipitation
Forecast for 2018-05-22 18:00 UTC. Updated 5 hours ago

Ground ~20,000 ft ~40,000 ft Winds

METAR

KDVO 222135Z AUTO 23014G22KT 10SM CLR 21/12 A2985 RMK AO2

TAF

Not found

Frequencies

Recorded 120.67 MHz AWOS 3
Unicom 123.07 MHz CTAF/UNICOM
Warning: Do not use this data for real-world aviation or navigation. No guarantee of current accuracy is given.